Time;durP1;ratioP1;P1;durP2;ratioP2;P2;SDS_P1;SDS_P2;PMS_P1;PMS_P2;Temp;Humidity;BMP_temperature;BMP_pressure;BME280_temperature;BME280_humidity;BME280_pressure;Samples;Min_cycle;Max_cycle;Signal;HPM_P1;HPM_P2
2023/07/26 00:00:15;;;;;;;5.10;1.70;;;;;;;12.40;100.00;100945.81;1001465;29;20048;-87
2023/07/26 00:00:50;;;;;;;1.98;1.85;;;;;;;12.14;100.00;100952.31;1005026;29;20331;-87
2023/07/26 00:01:21;;;;;;;5.50;1.60;;;;;;;12.25;100.00;100948.06;1006090;29;20734;-87
2023/07/26 00:01:53;;;;;;;2.67;1.63;;;;;;;11.86;100.00;100950.16;1010783;29;20483;-88
2023/07/26 00:02:24;;;;;;;1.77;1.38;;;;;;;11.74;100.00;100947.38;1010113;29;20304;-88
2023/07/26 00:02:56;;;;;;;4.03;1.50;;;;;;;11.78;100.00;100955.81;1004611;29;20319;-88
2023/07/26 00:03:28;;;;;;;2.88;1.20;;;;;;;11.72;100.00;100961.97;1007770;29;20309;-87
2023/07/26 00:04:00;;;;;;;3.13;1.83;;;;;;;11.61;100.00;100958.19;1005277;29;20317;-88
2023/07/26 00:04:31;;;;;;;1.67;1.38;;;;;;;11.82;100.00;100959.66;1012272;29;20292;-87
2023/07/26 00:05:04;;;;;;;1.35;1.10;;;;;;;11.64;100.00;100956.91;1012513;29;20460;-88
2023/07/26 00:05:36;;;;;;;2.90;1.25;;;;;;;11.50;100.00;100958.88;1001689;29;20347;-87
2023/07/26 00:06:07;;;;;;;1.98;1.55;;;;;;;11.61;100.00;100960.03;1004413;29;20046;-87
2023/07/26 00:06:39;;;;;;;1.20;1.10;;;;;;;11.78;100.00;100958.47;1004831;29;20124;-87
2023/07/26 00:07:11;;;;;;;4.82;1.38;;;;;;;11.94;100.00;100959.72;1002525;29;20305;-88
2023/07/26 00:07:43;;;;;;;2.80;1.75;;;;;;;11.94;100.00;100957.06;1001337;29;20315;-87
2023/07/26 00:08:14;;;;;;;3.97;1.80;;;;;;;12.11;100.00;100957.28;1005302;29;20302;-88
2023/07/26 00:08:46;;;;;;;2.15;1.50;;;;;;;11.51;100.00;100957.06;1010598;29;20379;-87
2023/07/26 00:09:18;;;;;;;3.33;1.77;;;;;;;11.32;100.00;100956.19;1012275;29;20306;-87
2023/07/26 00:09:50;;;;;;;4.50;2.05;;;;;;;11.55;100.00;100961.72;1013256;29;20296;-87
2023/07/26 00:10:21;;;;;;;3.80;1.65;;;;;;;11.63;100.00;100961.44;1008589;29;20301;-87
2023/07/26 00:10:53;;;;;;;2.08;1.58;;;;;;;11.62;100.00;100956.31;1008714;29;20817;-87
2023/07/26 00:11:24;;;;;;;2.97;1.85;;;;;;;11.62;100.00;100954.47;1005570;29;20805;-88
2023/07/26 00:11:56;;;;;;;2.35;1.60;;;;;;;11.69;100.00;100959.75;1005554;29;20310;-87
2023/07/26 00:12:28;;;;;;;1.95;1.55;;;;;;;11.67;100.00;100956.47;1008751;29;20305;-87
2023/07/26 00:12:59;;;;;;;4.78;1.50;;;;;;;11.84;100.00;100954.09;1010100;29;20316;-88
2023/07/26 00:13:31;;;;;;;3.05;2.75;;;;;;;11.96;100.00;100960.31;1009724;29;20310;-88
2023/07/26 00:14:03;;;;;;;7.43;2.13;;;;;;;11.93;100.00;100955.41;1013206;29;20316;-87
2023/07/26 00:14:35;;;;;;;1.77;1.67;;;;;;;12.06;100.00;100960.63;1010157;29;20317;-87
2023/07/26 00:15:07;;;;;;;1.73;1.63;;;;;;;12.13;100.00;100960.53;1005457;29;20302;-87
2023/07/26 00:15:39;;;;;;;1.42;1.33;;;;;;;12.18;100.00;100955.34;1008857;29;20045;-88
2023/07/26 00:16:10;;;;;;;2.00;1.40;;;;;;;12.07;100.00;100952.41;1006133;29;20392;-88
2023/07/26 00:16:42;;;;;;;1.77;1.45;;;;;;;12.11;100.00;100957.28;1005024;29;20326;-87
2023/07/26 00:17:14;;;;;;;1.73;1.63;;;;;;;12.18;100.00;100958.00;1002636;29;20665;-87
2023/07/26 00:17:45;;;;;;;3.67;1.80;;;;;;;12.20;100.00;100963.94;1002552;29;20406;-87
2023/07/26 00:18:17;;;;;;;3.00;1.60;;;;;;;12.23;100.00;100955.47;1001423;29;20307;-88
2023/07/26 00:18:49;;;;;;;5.63;1.60;;;;;;;12.13;100.00;100955.22;1004223;29;20501;-87
2023/07/26 00:19:23;;;;;;;2.67;1.80;;;;;;;12.15;100.00;100956.59;1004764;29;20041;-87
2023/07/26 00:19:54;;;;;;;3.38;1.65;;;;;;;12.11;100.00;100958.09;1001610;29;20370;-88
2023/07/26 00:20:26;;;;;;;3.08;1.70;;;;;;;12.11;100.00;100947.41;1001787;29;20374;-87
2023/07/26 00:20:58;;;;;;;4.75;1.55;;;;;;;12.15;100.00;100959.28;1002436;29;20049;-87
2023/07/26 00:21:29;;;;;;;1.95;1.42;;;;;;;12.09;100.00;100954.84;1001047;29;20666;-88
2023/07/26 00:22:01;;;;;;;2.75;2.05;;;;;;;12.10;100.00;100956.47;1005586;29;20046;-87
2023/07/26 00:22:32;;;;;;;4.35;1.42;;;;;;;12.12;100.00;100958.91;1006537;29;20362;-87
2023/07/26 00:23:04;;;;;;;6.70;1.73;;;;;;;12.11;100.00;100951.94;1009990;29;20045;-87
2023/07/26 00:23:36;;;;;;;2.75;1.48;;;;;;;12.11;100.00;100958.09;1005207;29;20053;-88
2023/07/26 00:24:07;;;;;;;2.63;1.85;;;;;;;11.93;100.00;100956.22;1005269;29;20136;-88
2023/07/26 00:24:39;;;;;;;2.33;1.25;;;;;;;11.90;100.00;100950.53;1004832;29;20046;-87
2023/07/26 00:25:11;;;;;;;1.58;1.42;;;;;;;11.97;100.00;100951.25;1003668;29;20045;-88
2023/07/26 00:25:42;;;;;;;2.75;1.67;;;;;;;12.05;100.00;100951.81;1002595;29;20314;-87
2023/07/26 00:26:14;;;;;;;3.47;1.67;;;;;;;12.16;100.00;100960.09;1001575;29;20302;-87
2023/07/26 00:26:46;;;;;;;2.40;1.70;;;;;;;12.13;100.00;100960.53;1005343;29;20306;-88
2023/07/26 00:27:17;;;;;;;1.30;1.20;;;;;;;12.18;100.00;100955.34;1010000;29;20378;-87
2023/07/26 00:27:49;;;;;;;4.45;1.58;;;;;;;12.24;100.00;100946.44;1009768;29;20301;-88
2023/07/26 00:28:21;;;;;;;1.83;1.70;;;;;;;12.29;100.00;100949.25;1006059;29;20797;-88
2023/07/26 00:28:52;;;;;;;2.60;1.40;;;;;;;12.22;100.00;100948.50;997410;29;20046;-87
2023/07/26 00:29:24;;;;;;;2.55;1.98;;;;;;;12.18;100.00;100952.69;996897;29;20367;-88
2023/07/26 00:29:57;;;;;;;4.07;1.60;;;;;;;12.16;100.00;100950.22;1006023;29;20105;-88
2023/07/26 00:30:48;;;;;;;3.13;1.73;;;;;;;12.31;100.00;100955.16;1008860;29;20361;-87
2023/07/26 00:31:22;;;;;;;4.53;1.80;;;;;;;12.36;100.00;100955.34;1006183;29;20381;-88
2023/07/26 00:31:53;;;;;;;3.58;1.40;;;;;;;12.37;100.00;100947.09;1007242;29;20048;-88
2023/07/26 00:32:25;;;;;;;3.58;1.45;;;;;;;12.32;100.00;100954.94;1008932;29;20304;-87
2023/07/26 00:32:57;;;;;;;1.75;1.65;;;;;;;12.37;100.00;100951.63;1009974;29;20138;-88
2023/07/26 00:33:28;;;;;;;2.83;1.83;;;;;;;12.38;100.00;100953.25;1004970;29;20306;-87
2023/07/26 00:34:00;;;;;;;2.00;1.65;;;;;;;12.29;100.00;100957.25;1001776;29;20336;-88
2023/07/26 00:34:32;;;;;;;5.32;1.90;;;;;;;12.29;100.00;100949.25;998386;29;20307;-87
2023/07/26 00:35:04;;;;;;;2.65;1.50;;;;;;;12.22;100.00;100959.19;1009836;29;20373;-87
2023/07/26 00:35:40;;;;;;;2.15;1.50;;;;;;;12.15;100.00;100958.47;1002064;29;20313;-88
2023/07/26 00:36:11;;;;;;;2.55;1.50;;;;;;;12.15;100.00;100958.47;1005452;29;20358;-87
2023/07/26 00:37:03;;;;;;;1.90;1.50;;;;;;;12.16;100.00;100957.44;1005940;29;20298;-88
2023/07/26 00:37:36;;;;;;;4.00;1.63;;;;;;;12.16;100.00;100966.25;1008167;29;20508;-87
2023/07/26 00:38:08;;;;;;;2.58;1.80;;;;;;;12.16;100.00;100960.09;1006348;29;20329;-87
2023/07/26 00:38:40;;;;;;;2.42;1.50;;;;;;;11.98;100.00;100959.06;1007762;29;20459;-88
2023/07/26 00:39:12;;;;;;;2.58;1.42;;;;;;;12.16;100.00;100954.75;1004794;29;20599;-87
2023/07/26 00:39:43;;;;;;;2.15;1.60;;;;;;;12.13;100.00;100956.03;997743;29;20070;-87
2023/07/26 00:40:15;;;;;;;5.00;1.95;;;;;;;11.74;100.00;100962.56;1002900;29;20334;-88
2023/07/26 00:40:47;;;;;;;1.58;1.48;;;;;;;11.72;100.00;100959.28;1007541;29;20811;-87
2023/07/26 00:41:19;;;;;;;1.90;1.30;;;;;;;11.78;100.00;100966.47;1006257;29;20302;-87
2023/07/26 00:41:50;;;;;;;3.60;1.27;;;;;;;11.37;100.00;100962.50;1005455;29;20045;-88
2023/07/26 00:42:22;;;;;;;4.03;2.00;;;;;;;11.54;100.00;100964.63;1006776;29;20392;-87
2023/07/26 00:42:54;;;;;;;2.00;1.60;;;;;;;11.34;100.00;100968.28;1005505;29;20098;-87
2023/07/26 00:43:26;;;;;;;1.88;1.23;;;;;;;11.31;100.00;100974.03;1006252;29;20484;-87
2023/07/26 00:43:58;;;;;;;2.00;1.30;;;;;;;11.49;100.00;100969.78;1002028;29;20402;-87
2023/07/26 00:44:31;;;;;;;2.25;1.77;;;;;;;11.56;100.00;100967.88;1006724;29;20472;-87
2023/07/26 00:45:03;;;;;;;7.32;2.60;;;;;;;11.48;100.00;100968.13;1009948;29;20499;-87
2023/07/26 00:45:37;;;;;;;2.42;1.63;;;;;;;11.44;100.00;100968.59;1013408;29;20055;-87
2023/07/26 00:46:08;;;;;;;2.72;1.25;;;;;;;11.68;100.00;100968.78;1010827;29;20640;-88
2023/07/26 00:46:40;;;;;;;2.08;1.63;;;;;;;11.72;100.00;100965.44;1006882;29;20053;-87
2023/07/26 00:47:12;;;;;;;2.45;2.25;;;;;;;11.64;100.00;100971.06;1010037;29;20293;-87
2023/07/26 00:47:44;;;;;;;3.28;1.15;;;;;;;11.67;100.00;100964.47;1009036;29;20788;-87
2023/07/26 00:48:16;;;;;;;3.67;1.60;;;;;;;11.73;100.00;100966.25;1001953;29;20046;-88
2023/07/26 00:48:48;;;;;;;1.88;1.30;;;;;;;11.55;100.00;100963.59;1006983;29;20398;-87
2023/07/26 00:49:21;;;;;;;1.80;1.70;;;;;;;11.67;100.00;100967.16;1010217;29;20305;-87
2023/07/26 00:49:53;;;;;;;5.30;2.85;;;;;;;11.62;100.00;100967.00;1009711;29;20312;-87
2023/07/26 00:50:26;;;;;;;1.40;1.30;;;;;;;11.59;100.00;100962.09;1011367;29;20328;-87
2023/07/26 00:51:00;;;;;;;3.88;2.10;;;;;;;11.43;100.00;100971.47;1012132;29;20041;-87
2023/07/26 00:51:34;;;;;;;2.13;1.75;;;;;;;11.54;100.00;100967.28;1008053;29;20071;-87
2023/07/26 00:52:06;;;;;;;1.85;1.60;;;;;;;11.70;100.00;100969.38;1007274;29;20326;-87
2023/07/26 00:52:38;;;;;;;1.95;1.67;;;;;;;11.62;100.00;100964.34;1012536;29;20047;-88
2023/07/26 00:53:10;;;;;;;2.53;1.52;;;;;;;11.64;100.00;100962.25;1013929;29;20044;-88
2023/07/26 00:53:42;;;;;;;2.65;1.55;;;;;;;11.39;100.00;100963.09;1012281;29;20057;-88
2023/07/26 00:54:15;;;;;;;2.25;2.05;;;;;;;11.25;100.00;100966.91;1009332;29;20105;-88
2023/07/26 00:54:47;;;;;;;1.98;1.40;;;;;;;11.49;100.00;100969.78;1010175;29;20309;-88
2023/07/26 00:55:19;;;;;;;4.30;1.45;;;;;;;11.48;100.00;100963.63;1012516;29;20787;-87
2023/07/26 00:55:50;;;;;;;2.35;2.15;;;;;;;11.42;100.00;100965.31;1000818;29;20061;-87
2023/07/26 00:56:22;;;;;;;4.88;1.45;;;;;;;11.21;100.00;100971.03;1002597;29;20401;-87
2023/07/26 00:56:54;;;;;;;2.35;2.00;;;;;;;11.36;100.00;100965.38;1001504;29;20068;-88
2023/07/26 00:57:26;;;;;;;2.08;1.58;;;;;;;11.54;100.00;100968.09;1009392;29;20097;-87
2023/07/26 00:57:57;;;;;;;1.67;1.58;;;;;;;11.45;100.00;100967.53;1002293;29;20398;-88
2023/07/26 00:58:30;;;;;;;1.48;1.38;;;;;;;11.50;100.00;100963.41;1005660;29;20299;-88
2023/07/26 00:59:02;;;;;;;1.27;1.17;;;;;;;11.15;100.00;100971.91;1009444;29;20078;-87
2023/07/26 00:59:37;;;;;;;5.07;1.80;;;;;;;11.35;100.00;100967.22;1004196;29;20306;-88
2023/07/26 01:00:09;;;;;;;1.70;1.60;;;;;;;11.56;100.00;100968.69;1001948;29;20308;-88
2023/07/26 01:00:43;;;;;;;5.13;1.75;;;;;;;11.57;100.00;100967.66;1008468;29;20306;-87
2023/07/26 01:01:15;;;;;;;1.70;1.60;;;;;;;11.43;100.00;100966.13;1005820;29;20820;-87
2023/07/26 01:01:47;;;;;;;3.88;1.77;;;;;;;11.61;100.00;100973.38;1006369;29;20137;-87
2023/07/26 01:02:19;;;;;;;2.35;1.40;;;;;;;11.51;100.00;100967.72;1006237;29;20708;-87
2023/07/26 01:02:50;;;;;;;3.08;1.67;;;;;;;11.56;100.00;100966.03;1008807;29;20325;-87
2023/07/26 01:03:22;;;;;;;5.93;1.90;;;;;;;11.58;100.00;100969.28;1010079;29;20321;-87
2023/07/26 01:03:54;;;;;;;3.75;1.70;;;;;;;11.78;100.00;100963.81;1008873;29;20308;-88
2023/07/26 01:04:26;;;;;;;2.03;1.85;;;;;;;11.78;100.00;100963.81;1006488;29;20045;-87
2023/07/26 01:04:58;;;;;;;1.25;1.23;;;;;;;11.84;100.00;100970.91;1010080;29;20406;-88
2023/07/26 01:05:32;;;;;;;4.90;1.55;;;;;;;11.86;100.00;100966.19;1014440;29;20316;-87
2023/07/26 01:06:07;;;;;;;6.70;1.48;;;;;;;11.97;100.00;100964.63;1009910;29;20326;-87
2023/07/26 01:07:08;;;;;;;2.38;1.55;;;;;;;11.89;100.00;100965.72;1011584;29;20366;-87
2023/07/26 01:07:54;;;;;;;1.98;1.27;;;;;;;11.97;100.00;100962.75;1008454;29;20301;-87
2023/07/26 01:08:40;;;;;;;2.05;1.60;;;;;;;11.92;100.00;100959.94;1004912;29;20053;-87
2023/07/26 01:09:45;;;;;;;4.68;1.95;;;;;;;11.99;100.00;100959.88;1008267;29;20463;-87
2023/07/26 01:10:30;;;;;;;2.35;2.10;;;;;;;12.03;100.00;100961.88;1002528;29;20310;-88
2023/07/26 01:11:06;;;;;;;7.10;1.77;;;;;;;12.09;100.00;100959.38;999113;29;20825;-87
2023/07/26 01:11:41;;;;;;;1.80;1.50;;;;;;;12.02;100.00;100965.56;1000922;29;20647;-87
2023/07/26 01:12:19;;;;;;;2.20;2.00;;;;;;;11.91;100.00;100960.16;1012989;29;20333;-87
2023/07/26 01:13:40;;;;;;;2.13;1.85;;;;;;;11.95;100.00;100964.84;1006334;29;20313;-87
2023/07/26 01:14:27;;;;;;;3.00;2.00;;;;;;;11.98;100.00;100959.06;996893;29;20307;-87
2023/07/26 01:15:03;;;;;;;1.73;1.60;;;;;;;11.85;100.00;100959.22;1008681;29;20306;-87
2023/07/26 01:15:37;;;;;;;1.95;1.40;;;;;;;11.97;100.00;100960.09;996735;29;20789;-88
2023/07/26 01:16:09;;;;;;;4.57;1.95;;;;;;;11.99;100.00;100960.69;1007604;29;20853;-87
2023/07/26 01:16:41;;;;;;;2.40;1.90;;;;;;;12.03;100.00;100961.88;1006185;29;20321;-87
2023/07/26 01:17:13;;;;;;;6.15;1.70;;;;;;;11.92;100.00;100957.28;1004220;29;20654;-87
2023/07/26 01:17:45;;;;;;;2.30;2.20;;;;;;;11.85;100.00;100959.22;1000282;29;20382;-87
2023/07/26 01:18:17;;;;;;;3.28;2.50;;;;;;;11.87;100.00;100962.47;1000740;29;20314;-86
2023/07/26 01:18:49;;;;;;;2.42;1.83;;;;;;;11.83;100.00;100960.47;1004485;29;20318;-87
2023/07/26 01:19:21;;;;;;;3.28;1.77;;;;;;;11.79;100.00;100957.44;1000775;29;20326;-87
2023/07/26 01:19:53;;;;;;;2.03;1.70;;;;;;;11.90;100.00;100956.69;1004454;29;20322;-87
2023/07/26 01:20:25;;;;;;;5.03;2.50;;;;;;;11.88;100.00;100958.75;1007910;29;20048;-87
2023/07/26 01:20:56;;;;;;;1.77;1.67;;;;;;;11.92;100.00;100953.78;1008130;29;20424;-87
2023/07/26 01:21:30;;;;;;;2.55;1.48;;;;;;;11.91;100.00;100958.31;1007942;29;20050;-87
2023/07/26 01:22:02;;;;;;;4.53;1.73;;;;;;;11.84;100.00;100962.91;1011414;29;20300;-87
2023/07/26 01:22:34;;;;;;;2.83;1.85;;;;;;;11.80;100.00;100959.06;1011500;29;20390;-87
2023/07/26 01:23:06;;;;;;;2.35;2.00;;;;;;;11.82;100.00;100958.84;1011804;29;20721;-87
2023/07/26 01:23:39;;;;;;;4.50;2.17;;;;;;;11.75;100.00;100959.66;1011489;29;20311;-86
2023/07/26 01:24:10;;;;;;;1.80;1.70;;;;;;;11.78;100.00;100961.13;1008258;29;20321;-87
2023/07/26 01:24:42;;;;;;;5.43;1.92;;;;;;;11.67;100.00;100956.47;1011217;29;20396;-87
2023/07/26 01:25:14;;;;;;;5.15;1.60;;;;;;;11.60;100.00;100961.06;1005387;29;20317;-87
2023/07/26 01:25:45;;;;;;;2.05;1.85;;;;;;;11.62;100.00;100969.66;1003838;29;20057;-87
2023/07/26 01:26:17;;;;;;;5.30;2.20;;;;;;;11.57;100.00;100962.31;1008175;29;20454;-87
2023/07/26 01:26:49;;;;;;;2.45;1.70;;;;;;;11.61;100.00;100960.84;1004349;29;20925;-87
2023/07/26 01:27:20;;;;;;;2.13;1.65;;;;;;;11.69;100.00;100962.41;1002209;29;20751;-87
2023/07/26 01:27:52;;;;;;;2.65;2.45;;;;;;;11.64;100.00;100962.25;999899;29;20313;-87
2023/07/26 01:28:23;;;;;;;2.60;2.13;;;;;;;11.69;100.00;100962.41;1004753;29;20046;-87
2023/07/26 01:28:55;;;;;;;2.47;1.75;;;;;;;11.68;100.00;100956.25;1000455;29;20299;-87
2023/07/26 01:29:27;;;;;;;1.77;1.45;;;;;;;11.66;100.00;100954.84;1003918;29;20317;-87
2023/07/26 01:30:01;;;;;;;3.50;1.83;;;;;;;11.61;100.00;100955.50;1007090;29;20064;-87
2023/07/26 01:30:33;;;;;;;3.65;1.85;;;;;;;11.55;100.00;100963.59;1006375;29;20405;-87
2023/07/26 01:31:06;;;;;;;1.95;1.77;;;;;;;11.52;100.00;100959.50;1004835;29;20677;-87
2023/07/26 01:31:38;;;;;;;2.15;1.70;;;;;;;11.55;100.00;100953.72;1007262;29;20515;-87
2023/07/26 01:32:12;;;;;;;1.85;1.75;;;;;;;11.44;100.00;100952.56;1007934;29;20456;-87
2023/07/26 01:32:45;;;;;;;2.58;2.38;;;;;;;11.48;100.00;100957.47;1003740;29;20648;-87
2023/07/26 01:33:17;;;;;;;4.57;1.73;;;;;;;11.52;100.00;100961.34;1004141;29;20053;-87
2023/07/26 01:33:51;;;;;;;3.85;1.75;;;;;;;11.52;100.00;100954.16;1003974;29;20310;-87
2023/07/26 01:34:23;;;;;;;5.57;1.95;;;;;;;11.62;100.00;100959.00;1000066;29;20531;-87
2023/07/26 01:34:55;;;;;;;1.95;1.48;;;;;;;11.60;100.00;100955.72;1000494;29;20067;-87
2023/07/26 01:35:28;;;;;;;1.58;1.48;;;;;;;11.57;100.00;100961.50;1004030;29;20042;-87
2023/07/26 01:35:59;;;;;;;5.90;1.55;;;;;;;11.51;100.00;100957.06;1003859;29;20313;-87
2023/07/26 01:36:31;;;;;;;2.95;1.75;;;;;;;11.48;100.00;100962.81;1007380;29;20388;-87
2023/07/26 01:37:03;;;;;;;6.10;1.95;;;;;;;11.36;100.00;100954.72;1003906;29;20041;-87
2023/07/26 01:37:37;;;;;;;2.15;1.38;;;;;;;11.35;100.00;100964.56;1007394;29;20574;-87
2023/07/26 01:38:10;;;;;;;4.75;1.77;;;;;;;11.37;100.00;100954.50;1004281;29;20313;-87
2023/07/26 01:38:43;;;;;;;1.88;1.65;;;;;;;11.45;100.00;100959.53;1006840;29;20309;-87
2023/07/26 01:39:15;;;;;;;2.20;1.52;;;;;;;11.50;100.00;100955.41;1007414;29;20048;-86
2023/07/26 01:39:48;;;;;;;3.28;1.70;;;;;;;11.42;100.00;100954.66;1004173;29;20309;-87
2023/07/26 01:40:21;;;;;;;2.25;2.08;;;;;;;11.53;100.00;100955.00;1004536;29;20461;-87
2023/07/26 01:40:53;;;;;;;2.58;1.88;;;;;;;11.32;100.00;100953.53;1011336;29;20305;-87
2023/07/26 01:41:25;;;;;;;7.78;1.70;;;;;;;11.11;100.00;100955.53;1011614;29;20041;-87
2023/07/26 01:41:57;;;;;;;2.72;1.40;;;;;;;11.20;100.00;100961.41;1011341;29;20128;-87
2023/07/26 01:42:29;;;;;;;2.92;1.70;;;;;;;11.03;100.00;100962.97;1008431;29;20044;-86
2023/07/26 01:43:01;;;;;;;3.28;1.73;;;;;;;10.84;100.00;100959.41;1011727;29;20309;-86
2023/07/26 01:43:33;;;;;;;2.33;1.58;;;;;;;10.82;100.00;100959.63;1003305;29;20050;-86
2023/07/26 01:44:05;;;;;;;2.17;1.63;;;;;;;10.95;100.00;100964.03;1000669;29;20049;-86
2023/07/26 01:44:37;;;;;;;2.05;1.83;;;;;;;10.71;100.00;100962.97;1007758;29;20052;-86
2023/07/26 01:45:09;;;;;;;6.13;3.85;;;;;;;10.71;100.00;100962.97;1004040;29;20673;-86
2023/07/26 01:45:41;;;;;;;2.28;2.08;;;;;;;10.40;100.00;100965.56;1004051;29;20638;-86
2023/07/26 01:46:13;;;;;;;2.00;1.60;;;;;;;10.41;100.00;100967.25;1002450;29;20798;-86
2023/07/26 01:46:45;;;;;;;2.70;2.50;;;;;;;10.53;100.00;100962.88;1000824;29;20054;-86
2023/07/26 01:47:17;;;;;;;1.60;1.50;;;;;;;10.71;100.00;100970.16;1003847;29;20049;-86
2023/07/26 01:47:51;;;;;;;1.77;1.67;;;;;;;10.89;100.00;100966.75;1003027;29;20421;-86
2023/07/26 01:48:23;;;;;;;4.90;1.60;;;;;;;10.53;100.00;100965.53;1007330;29;20045;-86
2023/07/26 01:48:55;;;;;;;1.55;1.27;;;;;;;10.64;100.00;100962.19;1007663;29;20056;-86
2023/07/26 01:49:26;;;;;;;2.75;2.00;;;;;;;10.51;100.00;100964.94;1008173;29;20109;-86
2023/07/26 01:49:58;;;;;;;2.20;1.20;;;;;;;10.69;100.00;100967.72;1007691;29;20045;-86
2023/07/26 01:50:30;;;;;;;5.25;1.42;;;;;;;10.78;100.00;100963.75;1007661;29;20044;-86
2023/07/26 01:51:03;;;;;;;3.38;1.70;;;;;;;10.64;100.00;100967.50;1003484;29;20310;-86
2023/07/26 01:51:34;;;;;;;1.70;1.42;;;;;;;10.50;100.00;100963.28;1004590;29;20519;-86
2023/07/26 01:52:07;;;;;;;1.65;1.52;;;;;;;10.31;100.00;100969.50;1008424;29;20043;-86
2023/07/26 01:52:40;;;;;;;1.60;1.50;;;;;;;10.44;100.00;100962.31;1008188;29;20108;-86
2023/07/26 01:53:11;;;;;;;1.58;1.40;;;;;;;10.29;100.00;100968.91;1004835;29;20049;-86
2023/07/26 01:53:43;;;;;;;2.13;1.90;;;;;;;10.47;100.00;100972.53;999194;29;20054;-86
2023/07/26 01:54:15;;;;;;;6.85;1.80;;;;;;;10.46;100.00;100965.56;1003674;29;20049;-86
2023/07/26 01:54:48;;;;;;;1.58;1.45;;;;;;;10.36;100.00;100964.38;999779;29;20046;-86
2023/07/26 01:55:20;;;;;;;3.08;1.92;;;;;;;10.55;100.00;100968.78;1003580;29;20404;-86
2023/07/26 01:55:52;;;;;;;4.25;1.92;;;;;;;10.37;100.00;100972.16;1003804;29;20061;-86
2023/07/26 01:56:24;;;;;;;2.35;2.15;;;;;;;10.17;100.00;100961.56;1003825;29;20045;-86
2023/07/26 01:56:55;;;;;;;2.40;1.60;;;;;;;10.12;100.00;100964.00;1007577;29;20048;-86
2023/07/26 01:57:28;;;;;;;4.00;1.63;;;;;;;10.13;100.00;100965.66;1003493;29;20681;-86
2023/07/26 01:58:00;;;;;;;4.28;2.15;;;;;;;10.23;100.00;100959.13;1003891;29;20186;-86
2023/07/26 01:58:31;;;;;;;2.22;2.03;;;;;;;10.14;100.00;100961.16;1003715;29;20079;-86
2023/07/26 01:59:03;;;;;;;2.10;1.77;;;;;;;10.27;100.00;100961.13;1007587;29;20839;-86
2023/07/26 01:59:35;;;;;;;2.72;1.77;;;;;;;10.33;100.00;100965.59;1003919;29;20417;-86
2023/07/26 02:00:07;;;;;;;3.72;2.33;;;;;;;10.15;100.00;100958.28;1004330;29;20076;-86
2023/07/26 02:00:45;;;;;;;2.70;1.83;;;;;;;10.08;100.00;100970.78;1008963;29;20828;-86
2023/07/26 02:01:16;;;;;;;1.67;1.58;;;;;;;10.09;100.00;100974.25;1003638;29;20041;-86
2023/07/26 02:01:48;;;;;;;2.40;2.05;;;;;;;10.07;100.00;100977.13;1003655;29;20051;-86
2023/07/26 02:02:20;;;;;;;2.05;1.88;;;;;;;10.17;100.00;100958.91;1004956;29;20049;-86
2023/07/26 02:02:52;;;;;;;2.85;1.58;;;;;;;10.06;100.00;100969.38;1003271;29;20707;-86
2023/07/26 02:03:24;;;;;;;2.08;1.45;;;;;;;10.09;100.00;100975.09;1007941;29;20116;-86
2023/07/26 02:03:56;;;;;;;2.63;2.00;;;;;;;10.09;100.00;100974.25;1000200;29;20311;-86
2023/07/26 02:04:27;;;;;;;5.50;1.92;;;;;;;10.09;100.00;100980.41;1003567;29;20658;-86
2023/07/26 02:04:59;;;;;;;2.25;2.05;;;;;;;10.09;100.00;100969.75;1003593;29;20057;-86
2023/07/26 02:05:31;;;;;;;3.15;1.90;;;;;;;10.01;100.00;100974.50;999979;29;20138;-86
2023/07/26 02:06:03;;;;;;;3.80;1.80;;;;;;;10.12;100.00;100984.50;1003972;29;20361;-86
2023/07/26 02:06:34;;;;;;;1.50;1.40;;;;;;;10.08;100.00;100977.94;1007514;29;20049;-86
2023/07/26 02:07:06;;;;;;;1.50;1.40;;;;;;;10.03;100.00;100981.25;1011393;29;20566;-86
2023/07/26 02:07:38;;;;;;;1.58;1.48;;;;;;;10.12;100.00;100979.97;1011366;29;20455;-86
2023/07/26 02:08:10;;;;;;;2.88;2.00;;;;;;;10.05;100.00;100984.50;1011111;29;20312;-86
2023/07/26 02:08:41;;;;;;;2.03;1.83;;;;;;;9.98;100.00;100972.25;1007630;29;20400;-86
2023/07/26 02:09:13;;;;;;;2.25;1.80;;;;;;;10.09;100.00;100975.09;1003664;29;20045;-86
2023/07/26 02:09:45;;;;;;;3.33;1.88;;;;;;;10.07;100.00;100971.00;999946;29;20306;-86
2023/07/26 02:10:17;;;;;;;1.38;1.27;;;;;;;9.98;100.00;100977.59;999997;29;20045;-86
2023/07/26 02:10:49;;;;;;;2.45;1.92;;;;;;;10.01;100.00;100975.31;999983;29;20402;-86
2023/07/26 02:11:20;;;;;;;6.05;1.67;;;;;;;10.02;100.00;100974.28;1007925;29;20831;-87
2023/07/26 02:11:52;;;;;;;5.80;2.28;;;;;;;9.99;100.00;100974.72;1007533;29;20365;-86
2023/07/26 02:12:23;;;;;;;1.80;1.70;;;;;;;9.98;100.00;100969.59;1003963;29;20434;-86
2023/07/26 02:12:55;;;;;;;1.92;1.80;;;;;;;10.23;100.00;100975.09;1003821;29;20316;-86
2023/07/26 02:13:27;;;;;;;3.67;1.60;;;;;;;10.18;100.00;100976.50;1007579;29;20449;-86
2023/07/26 02:13:59;;;;;;;4.90;1.92;;;;;;;10.08;100.00;100973.44;1007947;29;20397;-86
2023/07/26 02:14:30;;;;;;;2.53;1.90;;;;;;;10.03;100.00;100972.44;1003709;29;20957;-86
2023/07/26 02:15:02;;;;;;;4.60;1.95;;;;;;;10.02;100.00;100973.47;1000130;29;20930;-86
2023/07/26 02:15:34;;;;;;;1.98;1.50;;;;;;;10.03;100.00;100970.59;1000093;29;20042;-86
2023/07/26 02:16:06;;;;;;;3.15;2.30;;;;;;;10.00;100.00;100976.34;999681;29;20333;-86
2023/07/26 02:16:38;;;;;;;3.42;1.35;;;;;;;9.91;100.00;100970.44;1000119;29;20310;-86
2023/07/26 02:17:10;;;;;;;1.95;1.63;;;;;;;9.80;100.00;100970.25;1001567;29;20436;-86
2023/07/26 02:17:41;;;;;;;2.70;1.80;;;;;;;9.72;100.00;100967.81;1007386;29;20305;-86
2023/07/26 02:18:13;;;;;;;1.45;1.35;;;;;;;9.77;100.00;100958.19;1003774;29;20820;-86
2023/07/26 02:18:45;;;;;;;5.05;1.77;;;;;;;9.84;100.00;100971.47;995913;29;20517;-86
2023/07/26 02:19:17;;;;;;;1.60;1.50;;;;;;;9.96;100.00;100963.69;1000106;29;20813;-86
2023/07/26 02:19:48;;;;;;;2.33;2.05;;;;;;;9.81;100.00;100966.56;999243;29;20307;-86
2023/07/26 02:20:20;;;;;;;3.30;2.95;;;;;;;9.70;100.00;100970.69;996499;29;20307;-86
2023/07/26 02:20:52;;;;;;;4.03;1.50;;;;;;;9.79;100.00;100965.94;998304;29;20666;-86
2023/07/26 02:21:23;;;;;;;2.38;2.17;;;;;;;9.81;100.00;100959.41;1010051;29;20301;-86
2023/07/26 02:21:55;;;;;;;1.40;1.30;;;;;;;9.82;100.00;100962.88;1011252;29;20323;-86
2023/07/26 02:22:27;;;;;;;1.52;1.40;;;;;;;9.73;100.00;100967.59;1006143;29;20310;-86
2023/07/26 02:22:59;;;;;;;5.70;2.17;;;;;;;9.90;100.00;100962.66;1007841;29;20823;-86
2023/07/26 02:23:30;;;;;;;2.13;1.80;;;;;;;9.63;100.00;100971.72;1007281;29;20387;-86
2023/07/26 02:24:02;;;;;;;6.63;1.67;;;;;;;9.50;100.00;100964.56;1003787;29;20313;-86
2023/07/26 02:24:34;;;;;;;6.57;1.63;;;;;;;9.38;100.00;100956.41;1003756;29;20305;-86
2023/07/26 02:25:06;;;;;;;6.10;1.95;;;;;;;9.40;100.00;100965.00;1003480;29;20045;-86
2023/07/26 02:25:38;;;;;;;5.40;2.08;;;;;;;9.64;100.00;100958.22;1000010;29;20485;-86
2023/07/26 02:26:10;;;;;;;3.83;1.70;;;;;;;9.67;100.00;100959.63;1000565;29;20674;-86
2023/07/26 02:26:41;;;;;;;1.58;1.48;;;;;;;9.66;100.00;100958.00;996358;29;20385;-86
2023/07/26 02:27:14;;;;;;;3.50;1.80;;;;;;;9.64;100.00;100958.22;999958;29;20049;-86
2023/07/26 02:27:46;;;;;;;1.95;1.75;;;;;;;9.59;100.00;100964.16;1017624;29;20716;-86
2023/07/26 02:28:19;;;;;;;2.15;1.92;;;;;;;9.59;100.00;100958.84;1011407;29;20052;-86
2023/07/26 02:28:51;;;;;;;2.22;2.03;;;;;;;9.77;100.00;100965.34;1003678;29;20351;-86
2023/07/26 02:29:22;;;;;;;5.30;1.70;;;;;;;9.74;100.00;100963.09;1003702;29;20209;-86
2023/07/26 02:29:54;;;;;;;2.13;1.80;;;;;;;9.67;100.00;100960.47;1011395;29;20308;-86
2023/07/26 02:30:26;;;;;;;4.25;1.80;;;;;;;9.54;100.00;100955.97;1011476;29;20297;-86
2023/07/26 02:30:58;;;;;;;2.13;1.85;;;;;;;9.44;100.00;100960.88;1007292;29;20302;-86
2023/07/26 02:31:30;;;;;;;1.48;1.38;;;;;;;9.38;100.00;100956.41;1007609;29;20360;-87